sensor_id;sensor_type;location;lat;lon;timestamp;P1;durP1;ratioP1;P2;durP2;ratioP2
1601;SDS011;794;48.592;9.634;2022-08-01T00:01:28;3.53;;;2.63;;
1601;SDS011;794;48.592;9.634;2022-08-01T00:03:55;3.73;;;2.40;;
1601;SDS011;794;48.592;9.634;2022-08-01T00:06:22;2.57;;;2.37;;
1601;SDS011;794;48.592;9.634;2022-08-01T00:08:49;2.67;;;2.47;;
1601;SDS011;794;48.592;9.634;2022-08-01T00:11:16;2.87;;;2.30;;
1601;SDS011;794;48.592;9.634;2022-08-01T00:13:43;3.07;;;2.77;;
1601;SDS011;794;48.592;9.634;2022-08-01T00:16:10;2.73;;;2.53;;
1601;SDS011;794;48.592;9.634;2022-08-01T00:18:38;2.80;;;2.60;;
1601;SDS011;794;48.592;9.634;2022-08-01T00:21:05;3.30;;;2.60;;
1601;SDS011;794;48.592;9.634;2022-08-01T00:23:32;2.73;;;2.53;;
1601;SDS011;794;48.592;9.634;2022-08-01T00:26:00;4.50;;;2.50;;
1601;SDS011;794;48.592;9.634;2022-08-01T00:28:27;3.23;;;2.60;;
1601;SDS011;794;48.592;9.634;2022-08-01T00:30:54;2.53;;;2.33;;
1601;SDS011;794;48.592;9.634;2022-08-01T00:33:21;2.90;;;2.40;;
1601;SDS011;794;48.592;9.634;2022-08-01T00:35:49;2.93;;;2.50;;
1601;SDS011;794;48.592;9.634;2022-08-01T00:38:16;2.10;;;1.90;;
1601;SDS011;794;48.592;9.634;2022-08-01T00:40:43;2.67;;;2.47;;
1601;SDS011;794;48.592;9.634;2022-08-01T00:43:10;2.60;;;2.40;;
1601;SDS011;794;48.592;9.634;2022-08-01T00:45:37;5.90;;;3.20;;
1601;SDS011;794;48.592;9.634;2022-08-01T00:48:04;2.97;;;2.73;;
1601;SDS011;794;48.592;9.634;2022-08-01T00:50:31;4.73;;;2.60;;
1601;SDS011;794;48.592;9.634;2022-08-01T00:53:03;2.90;;;2.70;;
1601;SDS011;794;48.592;9.634;2022-08-01T00:55:31;3.00;;;2.77;;
1601;SDS011;794;48.592;9.634;2022-08-01T00:57:58;2.90;;;2.50;;
1601;SDS011;794;48.592;9.634;2022-08-01T01:00:34;2.77;;;2.57;;
1601;SDS011;794;48.592;9.634;2022-08-01T01:03:01;3.40;;;3.13;;
1601;SDS011;794;48.592;9.634;2022-08-01T01:05:29;2.63;;;2.43;;
1601;SDS011;794;48.592;9.634;2022-08-01T01:08:02;3.60;;;2.60;;
1601;SDS011;794;48.592;9.634;2022-08-01T01:10:36;2.60;;;2.40;;
1601;SDS011;794;48.592;9.634;2022-08-01T01:13:10;3.10;;;2.90;;
1601;SDS011;794;48.592;9.634;2022-08-01T01:15:43;2.93;;;2.63;;
1601;SDS011;794;48.592;9.634;2022-08-01T01:18:14;2.50;;;2.17;;
1601;SDS011;794;48.592;9.634;2022-08-01T01:20:51;3.13;;;2.87;;
1601;SDS011;794;48.592;9.634;2022-08-01T01:23:40;3.03;;;2.70;;
1601;SDS011;794;48.592;9.634;2022-08-01T01:26:17;3.23;;;3.03;;
1601;SDS011;794;48.592;9.634;2022-08-01T01:29:02;2.80;;;2.53;;
1601;SDS011;794;48.592;9.634;2022-08-01T01:31:33;3.23;;;2.60;;
1601;SDS011;794;48.592;9.634;2022-08-01T01:34:09;2.97;;;2.70;;
1601;SDS011;794;48.592;9.634;2022-08-01T01:36:39;2.80;;;2.60;;
1601;SDS011;794;48.592;9.634;2022-08-01T01:39:07;3.73;;;2.40;;
1601;SDS011;794;48.592;9.634;2022-08-01T01:41:35;3.50;;;3.20;;
1601;SDS011;794;48.592;9.634;2022-08-01T01:44:05;3.97;;;2.67;;
1601;SDS011;794;48.592;9.634;2022-08-01T01:46:34;2.53;;;2.33;;
1601;SDS011;794;48.592;9.634;2022-08-01T01:49:03;3.50;;;3.27;;
1601;SDS011;794;48.592;9.634;2022-08-01T01:51:31;8.33;;;2.83;;
1601;SDS011;794;48.592;9.634;2022-08-01T01:53:59;6.60;;;2.87;;
1601;SDS011;794;48.592;9.634;2022-08-01T01:56:27;3.40;;;2.40;;
1601;SDS011;794;48.592;9.634;2022-08-01T01:58:56;3.50;;;3.20;;
1601;SDS011;794;48.592;9.634;2022-08-01T02:01:31;2.80;;;2.60;;
1601;SDS011;794;48.592;9.634;2022-08-01T02:04:00;2.60;;;2.40;;
1601;SDS011;794;48.592;9.634;2022-08-01T02:06:31;4.23;;;2.90;;
1601;SDS011;794;48.592;9.634;2022-08-01T02:09:00;3.10;;;2.90;;
1601;SDS011;794;48.592;9.634;2022-08-01T02:11:27;3.43;;;3.10;;
1601;SDS011;794;48.592;9.634;2022-08-01T02:13:55;4.50;;;3.27;;
1601;SDS011;794;48.592;9.634;2022-08-01T02:16:27;3.27;;;2.97;;
1601;SDS011;794;48.592;9.634;2022-08-01T02:18:55;3.40;;;2.90;;
1601;SDS011;794;48.592;9.634;2022-08-01T02:21:26;3.00;;;2.70;;
1601;SDS011;794;48.592;9.634;2022-08-01T02:23:59;4.60;;;3.27;;
1601;SDS011;794;48.592;9.634;2022-08-01T02:26:34;3.30;;;3.10;;
1601;SDS011;794;48.592;9.634;2022-08-01T02:29:11;3.20;;;2.90;;
1601;SDS011;794;48.592;9.634;2022-08-01T02:31:44;3.57;;;3.23;;
1601;SDS011;794;48.592;9.634;2022-08-01T02:34:14;3.10;;;2.80;;
1601;SDS011;794;48.592;9.634;2022-08-01T02:36:44;2.90;;;2.70;;
1601;SDS011;794;48.592;9.634;2022-08-01T02:39:13;3.13;;;2.87;;
1601;SDS011;794;48.592;9.634;2022-08-01T02:41:45;3.37;;;3.07;;
1601;SDS011;794;48.592;9.634;2022-08-01T02:44:15;2.93;;;2.60;;
1601;SDS011;794;48.592;9.634;2022-08-01T02:46:51;3.10;;;2.77;;
1601;SDS011;794;48.592;9.634;2022-08-01T02:49:20;2.70;;;2.50;;
1601;SDS011;794;48.592;9.634;2022-08-01T02:51:49;3.37;;;3.17;;
1601;SDS011;794;48.592;9.634;2022-08-01T02:54:17;2.97;;;2.67;;
1601;SDS011;794;48.592;9.634;2022-08-01T02:56:47;3.50;;;3.23;;
1601;SDS011;794;48.592;9.634;2022-08-01T02:59:16;3.57;;;3.27;;
1601;SDS011;794;48.592;9.634;2022-08-01T03:01:46;3.50;;;3.20;;
1601;SDS011;794;48.592;9.634;2022-08-01T03:04:15;2.90;;;2.70;;
1601;SDS011;794;48.592;9.634;2022-08-01T03:06:44;3.57;;;3.10;;
1601;SDS011;794;48.592;9.634;2022-08-01T03:09:12;3.13;;;2.83;;
1601;SDS011;794;48.592;9.634;2022-08-01T03:11:41;4.00;;;2.93;;
1601;SDS011;794;48.592;9.634;2022-08-01T03:14:09;3.40;;;3.10;;
1601;SDS011;794;48.592;9.634;2022-08-01T03:16:38;3.60;;;3.30;;
1601;SDS011;794;48.592;9.634;2022-08-01T03:19:08;3.37;;;3.17;;
1601;SDS011;794;48.592;9.634;2022-08-01T03:21:39;3.60;;;3.30;;
1601;SDS011;794;48.592;9.634;2022-08-01T03:24:09;3.70;;;3.30;;
1601;SDS011;794;48.592;9.634;2022-08-01T03:26:38;3.40;;;3.10;;
1601;SDS011;794;48.592;9.634;2022-08-01T03:29:09;3.60;;;3.30;;
1601;SDS011;794;48.592;9.634;2022-08-01T03:31:39;3.23;;;2.97;;
1601;SDS011;794;48.592;9.634;2022-08-01T03:34:10;3.70;;;3.40;;
1601;SDS011;794;48.592;9.634;2022-08-01T03:36:38;3.40;;;3.10;;
1601;SDS011;794;48.592;9.634;2022-08-01T03:39:12;3.07;;;2.77;;
1601;SDS011;794;48.592;9.634;2022-08-01T03:41:43;4.60;;;3.07;;
1601;SDS011;794;48.592;9.634;2022-08-01T03:44:18;3.30;;;3.10;;
1601;SDS011;794;48.592;9.634;2022-08-01T03:46:52;3.00;;;2.80;;
1601;SDS011;794;48.592;9.634;2022-08-01T03:49:29;4.20;;;3.83;;
1601;SDS011;794;48.592;9.634;2022-08-01T03:52:00;3.27;;;3.00;;
1601;SDS011;794;48.592;9.634;2022-08-01T03:54:30;3.47;;;3.17;;
1601;SDS011;794;48.592;9.634;2022-08-01T03:57:01;3.30;;;3.07;;
1601;SDS011;794;48.592;9.634;2022-08-01T03:59:28;3.10;;;2.73;;
1601;SDS011;794;48.592;9.634;2022-08-01T04:01:56;4.53;;;4.10;;
1601;SDS011;794;48.592;9.634;2022-08-01T04:04:23;3.57;;;2.93;;
1601;SDS011;794;48.592;9.634;2022-08-01T04:06:50;3.43;;;3.13;;
1601;SDS011;794;48.592;9.634;2022-08-01T04:09:20;3.30;;;3.07;;
1601;SDS011;794;48.592;9.634;2022-08-01T04:11:48;4.80;;;3.60;;
1601;SDS011;794;48.592;9.634;2022-08-01T04:14:15;4.23;;;3.93;;
1601;SDS011;794;48.592;9.634;2022-08-01T04:16:42;4.10;;;3.20;;
1601;SDS011;794;48.592;9.634;2022-08-01T04:19:09;3.33;;;3.03;;
1601;SDS011;794;48.592;9.634;2022-08-01T04:21:37;3.97;;;3.67;;
1601;SDS011;794;48.592;9.634;2022-08-01T04:24:06;3.00;;;2.80;;
1601;SDS011;794;48.592;9.634;2022-08-01T04:26:38;2.97;;;2.67;;
1601;SDS011;794;48.592;9.634;2022-08-01T04:29:07;5.50;;;2.70;;
1601;SDS011;794;48.592;9.634;2022-08-01T04:31:35;7.13;;;2.77;;
1601;SDS011;794;48.592;9.634;2022-08-01T04:34:05;2.83;;;2.63;;
1601;SDS011;794;48.592;9.634;2022-08-01T04:36:33;4.27;;;2.37;;
1601;SDS011;794;48.592;9.634;2022-08-01T04:39:07;2.87;;;2.67;;
1601;SDS011;794;48.592;9.634;2022-08-01T04:41:36;3.87;;;3.17;;
1601;SDS011;794;48.592;9.634;2022-08-01T04:44:06;2.93;;;2.70;;
1601;SDS011;794;48.592;9.634;2022-08-01T04:46:33;3.93;;;3.10;;
1601;SDS011;794;48.592;9.634;2022-08-01T04:49:01;2.70;;;2.50;;
1601;SDS011;794;48.592;9.634;2022-08-01T04:51:31;3.10;;;2.80;;
1601;SDS011;794;48.592;9.634;2022-08-01T04:53:59;2.57;;;2.37;;
1601;SDS011;794;48.592;9.634;2022-08-01T04:56:26;3.10;;;2.67;;
1601;SDS011;794;48.592;9.634;2022-08-01T04:58:55;3.83;;;2.70;;
1601;SDS011;794;48.592;9.634;2022-08-01T05:01:35;2.97;;;2.63;;
1601;SDS011;794;48.592;9.634;2022-08-01T05:04:02;2.87;;;2.57;;
1601;SDS011;794;48.592;9.634;2022-08-01T05:06:30;2.53;;;2.33;;
1601;SDS011;794;48.592;9.634;2022-08-01T05:08:59;2.60;;;2.40;;
1601;SDS011;794;48.592;9.634;2022-08-01T05:11:26;2.80;;;2.40;;
1601;SDS011;794;48.592;9.634;2022-08-01T05:13:52;2.87;;;2.47;;
1601;SDS011;794;48.592;9.634;2022-08-01T05:16:21;2.50;;;2.30;;
1601;SDS011;794;48.592;9.634;2022-08-01T05:18:48;2.50;;;2.30;;
1601;SDS011;794;48.592;9.634;2022-08-01T05:21:15;2.80;;;2.50;;
1601;SDS011;794;48.592;9.634;2022-08-01T05:23:42;3.27;;;2.97;;
1601;SDS011;794;48.592;9.634;2022-08-01T05:26:09;4.07;;;2.50;;
1601;SDS011;794;48.592;9.634;2022-08-01T05:28:38;4.00;;;2.77;;
1601;SDS011;794;48.592;9.634;2022-08-01T05:31:07;6.00;;;2.43;;
1601;SDS011;794;48.592;9.634;2022-08-01T05:33:34;2.50;;;1.97;;
1601;SDS011;794;48.592;9.634;2022-08-01T05:36:01;3.47;;;2.00;;
1601;SDS011;794;48.592;9.634;2022-08-01T05:38:27;3.67;;;3.00;;
1601;SDS011;794;48.592;9.634;2022-08-01T05:40:54;3.40;;;2.70;;
1601;SDS011;794;48.592;9.634;2022-08-01T05:43:21;2.50;;;2.30;;
1601;SDS011;794;48.592;9.634;2022-08-01T05:45:48;3.00;;;2.70;;
1601;SDS011;794;48.592;9.634;2022-08-01T05:48:17;2.70;;;2.50;;
1601;SDS011;794;48.592;9.634;2022-08-01T05:50:44;3.07;;;2.87;;
1601;SDS011;794;48.592;9.634;2022-08-01T05:53:12;3.00;;;2.37;;
1601;SDS011;794;48.592;9.634;2022-08-01T05:55:39;2.50;;;2.30;;
1601;SDS011;794;48.592;9.634;2022-08-01T05:58:06;3.10;;;2.67;;
1601;SDS011;794;48.592;9.634;2022-08-01T06:00:33;3.07;;;2.77;;
1601;SDS011;794;48.592;9.634;2022-08-01T06:03:00;3.43;;;2.53;;
1601;SDS011;794;48.592;9.634;2022-08-01T06:05:28;3.30;;;3.10;;
1601;SDS011;794;48.592;9.634;2022-08-01T06:07:55;2.23;;;2.03;;
1601;SDS011;794;48.592;9.634;2022-08-01T06:10:23;3.17;;;2.87;;
1601;SDS011;794;48.592;9.634;2022-08-01T06:12:50;4.37;;;2.77;;
1601;SDS011;794;48.592;9.634;2022-08-01T06:15:17;3.00;;;2.73;;
1601;SDS011;794;48.592;9.634;2022-08-01T06:17:44;2.40;;;2.20;;
1601;SDS011;794;48.592;9.634;2022-08-01T06:20:11;3.40;;;2.23;;
1601;SDS011;794;48.592;9.634;2022-08-01T06:22:39;4.53;;;2.77;;
1601;SDS011;794;48.592;9.634;2022-08-01T06:25:07;2.30;;;2.10;;
1601;SDS011;794;48.592;9.634;2022-08-01T06:27:34;3.17;;;2.27;;
1601;SDS011;794;48.592;9.634;2022-08-01T06:30:01;1.93;;;1.83;;
1601;SDS011;794;48.592;9.634;2022-08-01T06:32:29;2.33;;;2.13;;
1601;SDS011;794;48.592;9.634;2022-08-01T06:34:56;1.80;;;1.70;;
1601;SDS011;794;48.592;9.634;2022-08-01T06:37:23;4.90;;;1.60;;
1601;SDS011;794;48.592;9.634;2022-08-01T06:39:55;1.60;;;1.50;;
1601;SDS011;794;48.592;9.634;2022-08-01T06:42:22;1.77;;;1.40;;
1601;SDS011;794;48.592;9.634;2022-08-01T06:44:50;1.87;;;1.10;;
1601;SDS011;794;48.592;9.634;2022-08-01T06:47:16;3.90;;;0.90;;
1601;SDS011;794;48.592;9.634;2022-08-01T06:49:43;2.33;;;1.20;;
1601;SDS011;794;48.592;9.634;2022-08-01T06:52:10;2.27;;;1.00;;
1601;SDS011;794;48.592;9.634;2022-08-01T06:54:37;1.87;;;0.93;;
1601;SDS011;794;48.592;9.634;2022-08-01T06:57:06;4.13;;;1.00;;
1601;SDS011;794;48.592;9.634;2022-08-01T06:59:33;1.57;;;1.30;;
1601;SDS011;794;48.592;9.634;2022-08-01T07:02:00;1.53;;;1.03;;
1601;SDS011;794;48.592;9.634;2022-08-01T07:04:27;1.77;;;1.00;;
1601;SDS011;794;48.592;9.634;2022-08-01T07:06:54;1.30;;;1.00;;
1601;SDS011;794;48.592;9.634;2022-08-01T07:09:22;4.80;;;1.30;;
1601;SDS011;794;48.592;9.634;2022-08-01T07:11:52;2.30;;;1.40;;
1601;SDS011;794;48.592;9.634;2022-08-01T07:14:21;0.83;;;0.80;;
1601;SDS011;794;48.592;9.634;2022-08-01T07:16:48;1.33;;;0.87;;
1601;SDS011;794;48.592;9.634;2022-08-01T07:19:15;1.70;;;1.17;;
1601;SDS011;794;48.592;9.634;2022-08-01T07:21:42;1.27;;;1.00;;
1601;SDS011;794;48.592;9.634;2022-08-01T07:24:10;1.63;;;1.23;;
1601;SDS011;794;48.592;9.634;2022-08-01T07:26:38;1.23;;;1.13;;
1601;SDS011;794;48.592;9.634;2022-08-01T07:29:05;1.57;;;1.23;;
1601;SDS011;794;48.592;9.634;2022-08-01T07:31:34;2.30;;;1.17;;
1601;SDS011;794;48.592;9.634;2022-08-01T07:34:01;1.37;;;1.10;;
1601;SDS011;794;48.592;9.634;2022-08-01T07:36:28;3.13;;;1.37;;
1601;SDS011;794;48.592;9.634;2022-08-01T07:38:55;3.10;;;1.10;;
1601;SDS011;794;48.592;9.634;2022-08-01T07:41:22;1.63;;;1.37;;
1601;SDS011;794;48.592;9.634;2022-08-01T07:43:49;2.97;;;1.30;;
1601;SDS011;794;48.592;9.634;2022-08-01T07:46:17;2.07;;;1.30;;
1601;SDS011;794;48.592;9.634;2022-08-01T07:48:45;3.47;;;1.20;;
1601;SDS011;794;48.592;9.634;2022-08-01T07:51:12;1.90;;;1.80;;
1601;SDS011;794;48.592;9.634;2022-08-01T07:53:39;2.77;;;1.50;;
1601;SDS011;794;48.592;9.634;2022-08-01T07:56:06;1.57;;;1.47;;
1601;SDS011;794;48.592;9.634;2022-08-01T07:58:33;1.30;;;1.20;;
1601;SDS011;794;48.592;9.634;2022-08-01T08:01:00;1.23;;;1.13;;
1601;SDS011;794;48.592;9.634;2022-08-01T08:03:27;2.17;;;0.93;;
1601;SDS011;794;48.592;9.634;2022-08-01T08:05:55;1.60;;;1.00;;
1601;SDS011;794;48.592;9.634;2022-08-01T08:08:22;1.00;;;0.90;;
1601;SDS011;794;48.592;9.634;2022-08-01T08:10:49;1.20;;;0.90;;
1601;SDS011;794;48.592;9.634;2022-08-01T08:13:16;0.93;;;0.87;;
1601;SDS011;794;48.592;9.634;2022-08-01T08:15:43;1.17;;;1.07;;
1601;SDS011;794;48.592;9.634;2022-08-01T08:18:10;1.43;;;0.70;;
1601;SDS011;794;48.592;9.634;2022-08-01T08:20:37;1.03;;;0.87;;
1601;SDS011;794;48.592;9.634;2022-08-01T08:23:05;1.50;;;1.13;;
1601;SDS011;794;48.592;9.634;2022-08-01T08:25:52;1.30;;;1.10;;
1601;SDS011;794;48.592;9.634;2022-08-01T08:28:20;1.10;;;1.00;;
1601;SDS011;794;48.592;9.634;2022-08-01T08:30:47;1.67;;;1.20;;
1601;SDS011;794;48.592;9.634;2022-08-01T08:33:14;2.00;;;1.23;;
1601;SDS011;794;48.592;9.634;2022-08-01T08:35:41;1.30;;;1.20;;
1601;SDS011;794;48.592;9.634;2022-08-01T08:38:09;1.73;;;1.23;;
1601;SDS011;794;48.592;9.634;2022-08-01T08:40:37;4.97;;;1.50;;
1601;SDS011;794;48.592;9.634;2022-08-01T08:43:05;2.47;;;1.90;;
1601;SDS011;794;48.592;9.634;2022-08-01T08:45:32;3.63;;;1.60;;
1601;SDS011;794;48.592;9.634;2022-08-01T08:48:00;3.77;;;1.63;;
1601;SDS011;794;48.592;9.634;2022-08-01T08:50:27;1.60;;;1.47;;
1601;SDS011;794;48.592;9.634;2022-08-01T08:52:55;3.47;;;2.20;;
1601;SDS011;794;48.592;9.634;2022-08-01T08:55:24;1.70;;;1.60;;
1601;SDS011;794;48.592;9.634;2022-08-01T08:57:52;2.83;;;1.70;;
1601;SDS011;794;48.592;9.634;2022-08-01T09:00:20;1.73;;;1.63;;
1601;SDS011;794;48.592;9.634;2022-08-01T09:02:48;1.70;;;1.60;;
1601;SDS011;794;48.592;9.634;2022-08-01T09:05:17;2.10;;;1.60;;
1601;SDS011;794;48.592;9.634;2022-08-01T09:07:50;2.23;;;2.03;;
1601;SDS011;794;48.592;9.634;2022-08-01T09:10:17;1.50;;;1.40;;
1601;SDS011;794;48.592;9.634;2022-08-01T09:13:05;2.83;;;1.90;;
1601;SDS011;794;48.592;9.634;2022-08-01T09:15:39;1.80;;;1.70;;
1601;SDS011;794;48.592;9.634;2022-08-01T09:18:07;3.23;;;2.73;;
1601;SDS011;794;48.592;9.634;2022-08-01T09:20:34;1.90;;;1.70;;
1601;SDS011;794;48.592;9.634;2022-08-01T09:23:02;2.30;;;1.67;;
1601;SDS011;794;48.592;9.634;2022-08-01T09:25:29;2.03;;;1.60;;
1601;SDS011;794;48.592;9.634;2022-08-01T09:28:02;3.70;;;1.60;;
1601;SDS011;794;48.592;9.634;2022-08-01T09:30:36;1.70;;;1.60;;
1601;SDS011;794;48.592;9.634;2022-08-01T09:33:05;2.20;;;1.73;;
1601;SDS011;794;48.592;9.634;2022-08-01T09:35:33;1.70;;;1.60;;
1601;SDS011;794;48.592;9.634;2022-08-01T09:38:12;2.87;;;2.67;;
1601;SDS011;794;48.592;9.634;2022-08-01T09:40:44;2.33;;;1.83;;
1601;SDS011;794;48.592;9.634;2022-08-01T09:43:16;2.10;;;2.00;;
1601;SDS011;794;48.592;9.634;2022-08-01T09:45:43;2.10;;;1.93;;
1601;SDS011;794;48.592;9.634;2022-08-01T09:48:11;3.40;;;1.57;;
1601;SDS011;794;48.592;9.634;2022-08-01T09:50:38;2.17;;;2.00;;
1601;SDS011;794;48.592;9.634;2022-08-01T09:53:09;2.20;;;2.00;;
1601;SDS011;794;48.592;9.634;2022-08-01T09:55:36;2.40;;;1.93;;
1601;SDS011;794;48.592;9.634;2022-08-01T09:58:03;1.73;;;1.63;;
1601;SDS011;794;48.592;9.634;2022-08-01T10:00:33;3.50;;;2.30;;
1601;SDS011;794;48.592;9.634;2022-08-01T10:03:19;1.60;;;1.50;;
1601;SDS011;794;48.592;9.634;2022-08-01T10:05:47;2.60;;;2.30;;
1601;SDS011;794;48.592;9.634;2022-08-01T10:08:14;2.00;;;1.90;;
1601;SDS011;794;48.592;9.634;2022-08-01T10:10:41;2.00;;;1.80;;
1601;SDS011;794;48.592;9.634;2022-08-01T10:13:09;2.10;;;1.77;;
1601;SDS011;794;48.592;9.634;2022-08-01T10:15:39;2.17;;;1.80;;
1601;SDS011;794;48.592;9.634;2022-08-01T10:18:07;2.30;;;1.83;;
1601;SDS011;794;48.592;9.634;2022-08-01T10:20:37;2.20;;;2.00;;
1601;SDS011;794;48.592;9.634;2022-08-01T10:23:04;3.37;;;2.03;;
1601;SDS011;794;48.592;9.634;2022-08-01T10:25:33;2.00;;;1.80;;
1601;SDS011;794;48.592;9.634;2022-08-01T10:28:02;4.73;;;2.10;;
1601;SDS011;794;48.592;9.634;2022-08-01T10:30:36;3.10;;;2.10;;
1601;SDS011;794;48.592;9.634;2022-08-01T10:33:05;2.17;;;1.97;;
1601;SDS011;794;48.592;9.634;2022-08-01T10:35:32;2.37;;;2.17;;
1601;SDS011;794;48.592;9.634;2022-08-01T10:38:00;2.63;;;1.80;;
1601;SDS011;794;48.592;9.634;2022-08-01T10:40:27;5.40;;;2.13;;
1601;SDS011;794;48.592;9.634;2022-08-01T10:42:55;2.30;;;2.00;;
1601;SDS011;794;48.592;9.634;2022-08-01T10:45:23;3.63;;;2.60;;
1601;SDS011;794;48.592;9.634;2022-08-01T10:47:53;1.70;;;1.60;;
1601;SDS011;794;48.592;9.634;2022-08-01T10:50:29;2.40;;;2.20;;
1601;SDS011;794;48.592;9.634;2022-08-01T10:53:10;2.57;;;2.37;;
1601;SDS011;794;48.592;9.634;2022-08-01T10:55:49;2.30;;;1.77;;
1601;SDS011;794;48.592;9.634;2022-08-01T10:58:24;2.10;;;1.90;;
1601;SDS011;794;48.592;9.634;2022-08-01T11:04:04;2.67;;;2.47;;
1601;SDS011;794;48.592;9.634;2022-08-01T11:09:30;2.37;;;2.17;;
1601;SDS011;794;48.592;9.634;2022-08-01T11:12:05;2.77;;;2.57;;
1601;SDS011;794;48.592;9.634;2022-08-01T11:17:52;2.83;;;2.60;;
1601;SDS011;794;48.592;9.634;2022-08-01T11:20:21;3.00;;;2.70;;
1601;SDS011;794;48.592;9.634;2022-08-01T11:26:08;4.73;;;2.87;;
1601;SDS011;794;48.592;9.634;2022-08-01T11:28:36;2.83;;;2.63;;
1601;SDS011;794;48.592;9.634;2022-08-01T11:33:54;3.40;;;3.07;;
1601;SDS011;794;48.592;9.634;2022-08-01T11:36:21;2.80;;;2.60;;
1601;SDS011;794;48.592;9.634;2022-08-01T11:41:42;2.73;;;2.53;;
1601;SDS011;794;48.592;9.634;2022-08-01T11:44:11;2.60;;;2.40;;
1601;SDS011;794;48.592;9.634;2022-08-01T11:46:49;3.50;;;3.20;;
1601;SDS011;794;48.592;9.634;2022-08-01T11:49:22;2.70;;;2.50;;
1601;SDS011;794;48.592;9.634;2022-08-01T11:51:56;3.30;;;3.00;;
1601;SDS011;794;48.592;9.634;2022-08-01T11:54:26;3.00;;;2.80;;
1601;SDS011;794;48.592;9.634;2022-08-01T11:56:54;5.10;;;2.50;;
1601;SDS011;794;48.592;9.634;2022-08-01T11:59:22;2.87;;;2.67;;
1601;SDS011;794;48.592;9.634;2022-08-01T12:01:49;3.27;;;3.00;;
1601;SDS011;794;48.592;9.634;2022-08-01T12:04:16;4.53;;;3.17;;
1601;SDS011;794;48.592;9.634;2022-08-01T12:06:43;3.30;;;3.00;;
1601;SDS011;794;48.592;9.634;2022-08-01T12:09:18;3.27;;;2.77;;
1601;SDS011;794;48.592;9.634;2022-08-01T12:11:47;3.80;;;3.10;;
1601;SDS011;794;48.592;9.634;2022-08-01T12:14:18;2.90;;;2.70;;
1601;SDS011;794;48.592;9.634;2022-08-01T12:16:50;4.90;;;3.43;;
1601;SDS011;794;48.592;9.634;2022-08-01T12:19:21;2.53;;;2.33;;
1601;SDS011;794;48.592;9.634;2022-08-01T12:22:08;4.17;;;3.87;;
1601;SDS011;794;48.592;9.634;2022-08-01T12:24:40;4.73;;;3.30;;
1601;SDS011;794;48.592;9.634;2022-08-01T12:27:10;3.67;;;3.37;;
1601;SDS011;794;48.592;9.634;2022-08-01T12:29:38;5.10;;;3.60;;
1601;SDS011;794;48.592;9.634;2022-08-01T12:32:21;3.93;;;3.50;;
1601;SDS011;794;48.592;9.634;2022-08-01T12:34:49;3.90;;;3.60;;
1601;SDS011;794;48.592;9.634;2022-08-01T12:37:17;4.17;;;3.83;;
1601;SDS011;794;48.592;9.634;2022-08-01T12:39:44;3.70;;;3.40;;
1601;SDS011;794;48.592;9.634;2022-08-01T12:42:13;5.40;;;3.47;;
1601;SDS011;794;48.592;9.634;2022-08-01T12:44:45;4.13;;;3.70;;
1601;SDS011;794;48.592;9.634;2022-08-01T12:47:16;3.97;;;3.67;;
1601;SDS011;794;48.592;9.634;2022-08-01T12:49:44;3.90;;;3.60;;
1601;SDS011;794;48.592;9.634;2022-08-01T12:52:29;3.60;;;3.30;;
1601;SDS011;794;48.592;9.634;2022-08-01T12:55:01;5.20;;;4.10;;
1601;SDS011;794;48.592;9.634;2022-08-01T12:57:35;6.87;;;3.87;;
1601;SDS011;794;48.592;9.634;2022-08-01T13:00:16;6.20;;;4.10;;
1601;SDS011;794;48.592;9.634;2022-08-01T13:02:49;5.50;;;4.20;;
1601;SDS011;794;48.592;9.634;2022-08-01T13:05:17;4.00;;;3.70;;
1601;SDS011;794;48.592;9.634;2022-08-01T13:07:45;4.33;;;3.83;;
1601;SDS011;794;48.592;9.634;2022-08-01T13:10:15;4.13;;;3.83;;
1601;SDS011;794;48.592;9.634;2022-08-01T13:12:54;4.93;;;4.43;;
1601;SDS011;794;48.592;9.634;2022-08-01T13:15:23;4.37;;;3.93;;
1601;SDS011;794;48.592;9.634;2022-08-01T13:17:53;4.30;;;3.90;;
1601;SDS011;794;48.592;9.634;2022-08-01T13:20:25;4.63;;;4.23;;
1601;SDS011;794;48.592;9.634;2022-08-01T13:22:55;4.70;;;4.30;;
1601;SDS011;794;48.592;9.634;2022-08-01T13:25:46;4.93;;;4.53;;
1601;SDS011;794;48.592;9.634;2022-08-01T13:28:20;4.30;;;3.90;;
1601;SDS011;794;48.592;9.634;2022-08-01T13:30:53;4.30;;;3.80;;
1601;SDS011;794;48.592;9.634;2022-08-01T13:33:22;3.70;;;3.40;;
1601;SDS011;794;48.592;9.634;2022-08-01T13:35:50;4.87;;;3.83;;
1601;SDS011;794;48.592;9.634;2022-08-01T13:38:18;4.00;;;3.70;;
1601;SDS011;794;48.592;9.634;2022-08-01T13:40:45;3.70;;;3.40;;
1601;SDS011;794;48.592;9.634;2022-08-01T13:43:12;4.47;;;4.07;;
1601;SDS011;794;48.592;9.634;2022-08-01T13:45:41;3.67;;;3.37;;
1601;SDS011;794;48.592;9.634;2022-08-01T13:48:08;4.17;;;3.83;;
1601;SDS011;794;48.592;9.634;2022-08-01T13:50:34;6.50;;;4.10;;
1601;SDS011;794;48.592;9.634;2022-08-01T13:53:01;3.60;;;3.30;;
1601;SDS011;794;48.592;9.634;2022-08-01T13:55:28;4.37;;;3.97;;
1601;SDS011;794;48.592;9.634;2022-08-01T13:57:55;3.30;;;2.93;;
1601;SDS011;794;48.592;9.634;2022-08-01T14:00:22;2.90;;;2.70;;
1601;SDS011;794;48.592;9.634;2022-08-01T14:02:57;3.50;;;3.20;;
1601;SDS011;794;48.592;9.634;2022-08-01T14:05:27;2.70;;;2.40;;
1601;SDS011;794;48.592;9.634;2022-08-01T14:07:54;3.13;;;2.93;;
1601;SDS011;794;48.592;9.634;2022-08-01T14:10:21;3.20;;;2.90;;
1601;SDS011;794;48.592;9.634;2022-08-01T14:12:49;2.90;;;2.70;;
1601;SDS011;794;48.592;9.634;2022-08-01T14:15:16;3.27;;;3.00;;
1601;SDS011;794;48.592;9.634;2022-08-01T14:17:44;3.20;;;2.90;;
1601;SDS011;794;48.592;9.634;2022-08-01T14:20:21;3.50;;;3.20;;
1601;SDS011;794;48.592;9.634;2022-08-01T14:22:48;3.73;;;3.37;;
1601;SDS011;794;48.592;9.634;2022-08-01T14:25:15;3.40;;;3.00;;
1601;SDS011;794;48.592;9.634;2022-08-01T14:27:43;3.40;;;3.10;;
1601;SDS011;794;48.592;9.634;2022-08-01T14:30:11;3.10;;;2.90;;
1601;SDS011;794;48.592;9.634;2022-08-01T14:32:38;6.37;;;3.67;;
1601;SDS011;794;48.592;9.634;2022-08-01T14:35:05;3.40;;;2.80;;
1601;SDS011;794;48.592;9.634;2022-08-01T14:37:34;3.70;;;3.30;;
1601;SDS011;794;48.592;9.634;2022-08-01T14:40:01;3.30;;;3.00;;
1601;SDS011;794;48.592;9.634;2022-08-01T14:42:34;3.10;;;2.80;;
1601;SDS011;794;48.592;9.634;2022-08-01T14:45:01;3.30;;;3.10;;
1601;SDS011;794;48.592;9.634;2022-08-01T14:47:29;2.53;;;2.33;;
1601;SDS011;794;48.592;9.634;2022-08-01T14:49:55;2.93;;;2.37;;
1601;SDS011;794;48.592;9.634;2022-08-01T14:52:22;3.07;;;2.77;;
1601;SDS011;794;48.592;9.634;2022-08-01T14:54:51;4.00;;;3.30;;
1601;SDS011;794;48.592;9.634;2022-08-01T14:57:17;3.53;;;2.50;;
1601;SDS011;794;48.592;9.634;2022-08-01T14:59:44;3.40;;;2.70;;
1601;SDS011;794;48.592;9.634;2022-08-01T15:02:12;3.20;;;2.17;;
1601;SDS011;794;48.592;9.634;2022-08-01T15:04:42;2.50;;;2.30;;
1601;SDS011;794;48.592;9.634;2022-08-01T15:07:09;4.57;;;2.80;;
1601;SDS011;794;48.592;9.634;2022-08-01T15:09:36;2.50;;;2.23;;
1601;SDS011;794;48.592;9.634;2022-08-01T15:12:04;2.90;;;2.60;;
1601;SDS011;794;48.592;9.634;2022-08-01T15:14:32;3.90;;;3.37;;
1601;SDS011;794;48.592;9.634;2022-08-01T15:17:13;3.40;;;2.70;;
1601;SDS011;794;48.592;9.634;2022-08-01T15:19:41;3.80;;;2.70;;
1601;SDS011;794;48.592;9.634;2022-08-01T15:22:07;2.50;;;2.30;;
1601;SDS011;794;48.592;9.634;2022-08-01T15:24:34;4.20;;;3.00;;
1601;SDS011;794;48.592;9.634;2022-08-01T15:27:01;4.07;;;2.40;;
1601;SDS011;794;48.592;9.634;2022-08-01T15:29:31;2.93;;;2.40;;
1601;SDS011;794;48.592;9.634;2022-08-01T15:31:59;3.17;;;2.70;;
1601;SDS011;794;48.592;9.634;2022-08-01T15:34:26;2.27;;;2.10;;
1601;SDS011;794;48.592;9.634;2022-08-01T15:36:53;2.47;;;2.27;;
1601;SDS011;794;48.592;9.634;2022-08-01T15:39:20;3.63;;;2.80;;
1601;SDS011;794;48.592;9.634;2022-08-01T15:41:47;3.03;;;2.73;;
1601;SDS011;794;48.592;9.634;2022-08-01T15:44:15;4.97;;;3.13;;
1601;SDS011;794;48.592;9.634;2022-08-01T15:46:46;7.57;;;3.67;;
1601;SDS011;794;48.592;9.634;2022-08-01T15:49:13;6.00;;;2.90;;
1601;SDS011;794;48.592;9.634;2022-08-01T15:51:40;9.30;;;4.27;;
1601;SDS011;794;48.592;9.634;2022-08-01T15:54:08;6.43;;;4.70;;
1601;SDS011;794;48.592;9.634;2022-08-01T15:56:35;9.37;;;4.07;;
1601;SDS011;794;48.592;9.634;2022-08-01T15:59:03;5.10;;;4.10;;
1601;SDS011;794;48.592;9.634;2022-08-01T16:01:31;8.27;;;3.87;;